Portada
METAR-TAF:

METAR-TAF

Aeroports :

Seyresse

Dacs, França

latitud: 43-41N, longitud: 001-04W, altitud: 32 m

Observació

L'informe es va fer fa 29 minuts, a les 13:30 UTC
Vent 4 kt del Est, variant entre Nord-Est i Sud
Temperatura 27°C
Humitat 62%
Pressió 1021 hPa
Visibilitat 10 km o més

METAR: LFBY 211330Z AUTO 10004KT 040V170 9999 // ////// 27/19 Q1021

Hora: 15:59 (13:59 UTC)


TAF: manca

Observacions i pronòstics meteorològics de més de 4000 aeroports (METAR i TAF).

Les estacions disponibles són els punts grocs i vermells al mapa.

Posi el ratolí al punt desitjat per veure el nom de l'estació.

Feu clic per veure les observacions i els pronòstics meteorològics.

Per canviar el mapa: feu clic els botons verds amb una creu de color negre per apropar; al botó verd amb un guió per allunyar la imatge; o en les fletxes verdes per a mapes adjacents.


METAR-TAF: